sensor_id;sensor_type;location;lat;lon;timestamp;P1;durP1;ratioP1;P2;durP2;ratioP2
33268;SDS011;19640;50.944;5.260;2024-02-26T00:02:23;1.05;;;0.90;;
33268;SDS011;19640;50.944;5.260;2024-02-26T00:04:48;1.23;;;0.75;;
33268;SDS011;19640;50.944;5.260;2024-02-26T00:07:15;2.75;;;1.00;;
33268;SDS011;19640;50.944;5.260;2024-02-26T00:09:41;5.53;;;1.10;;
33268;SDS011;19640;50.944;5.260;2024-02-26T00:12:07;2.03;;;1.05;;
33268;SDS011;19640;50.944;5.260;2024-02-26T00:14:33;1.52;;;0.90;;
33268;SDS011;19640;50.944;5.260;2024-02-26T00:16:59;1.08;;;0.95;;
33268;SDS011;19640;50.944;5.260;2024-02-26T00:19:25;0.95;;;0.90;;
33268;SDS011;19640;50.944;5.260;2024-02-26T00:21:51;2.33;;;1.10;;
33268;SDS011;19640;50.944;5.260;2024-02-26T00:24:18;1.23;;;1.08;;
33268;SDS011;19640;50.944;5.260;2024-02-26T00:26:44;1.42;;;0.93;;
33268;SDS011;19640;50.944;5.260;2024-02-26T00:29:10;2.28;;;0.90;;
33268;SDS011;19640;50.944;5.260;2024-02-26T00:31:36;1.42;;;1.05;;
33268;SDS011;19640;50.944;5.260;2024-02-26T00:34:03;1.60;;;1.13;;
33268;SDS011;19640;50.944;5.260;2024-02-26T00:36:28;1.52;;;1.00;;
33268;SDS011;19640;50.944;5.260;2024-02-26T00:38:54;2.58;;;1.15;;
33268;SDS011;19640;50.944;5.260;2024-02-26T00:41:20;1.58;;;0.98;;
33268;SDS011;19640;50.944;5.260;2024-02-26T00:43:46;2.10;;;1.05;;
33268;SDS011;19640;50.944;5.260;2024-02-26T00:46:12;1.42;;;0.75;;
33268;SDS011;19640;50.944;5.260;2024-02-26T00:48:38;1.30;;;1.05;;
33268;SDS011;19640;50.944;5.260;2024-02-26T00:51:04;1.45;;;1.35;;
33268;SDS011;19640;50.944;5.260;2024-02-26T00:53:30;3.05;;;1.25;;
33268;SDS011;19640;50.944;5.260;2024-02-26T00:55:56;2.35;;;1.02;;
33268;SDS011;19640;50.944;5.260;2024-02-26T00:58:24;2.08;;;1.10;;
33268;SDS011;19640;50.944;5.260;2024-02-26T01:00:50;1.85;;;1.20;;
33268;SDS011;19640;50.944;5.260;2024-02-26T01:03:17;1.02;;;0.70;;
33268;SDS011;19640;50.944;5.260;2024-02-26T01:05:43;1.38;;;1.15;;
33268;SDS011;19640;50.944;5.260;2024-02-26T01:08:09;3.40;;;1.10;;
33268;SDS011;19640;50.944;5.260;2024-02-26T01:10:34;2.60;;;1.15;;
33268;SDS011;19640;50.944;5.260;2024-02-26T01:13:00;5.35;;;1.10;;
33268;SDS011;19640;50.944;5.260;2024-02-26T01:15:26;1.35;;;0.85;;
33268;SDS011;19640;50.944;5.260;2024-02-26T01:17:52;1.30;;;1.20;;
33268;SDS011;19640;50.944;5.260;2024-02-26T01:20:18;1.30;;;0.90;;
33268;SDS011;19640;50.944;5.260;2024-02-26T01:22:44;1.13;;;0.77;;
33268;SDS011;19640;50.944;5.260;2024-02-26T01:25:10;1.95;;;0.77;;
33268;SDS011;19640;50.944;5.260;2024-02-26T01:27:38;3.72;;;1.00;;
33268;SDS011;19640;50.944;5.260;2024-02-26T01:30:06;1.35;;;0.93;;
33268;SDS011;19640;50.944;5.260;2024-02-26T01:32:32;0.88;;;0.85;;
33268;SDS011;19640;50.944;5.260;2024-02-26T01:34:58;2.45;;;0.95;;
33268;SDS011;19640;50.944;5.260;2024-02-26T01:37:23;1.67;;;0.90;;
33268;SDS011;19640;50.944;5.260;2024-02-26T01:39:49;1.52;;;1.10;;
33268;SDS011;19640;50.944;5.260;2024-02-26T01:42:15;0.88;;;0.82;;
33268;SDS011;19640;50.944;5.260;2024-02-26T01:44:40;2.88;;;1.25;;
33268;SDS011;19640;50.944;5.260;2024-02-26T01:47:07;2.03;;;1.10;;
33268;SDS011;19640;50.944;5.260;2024-02-26T01:49:36;1.85;;;0.80;;
33268;SDS011;19640;50.944;5.260;2024-02-26T01:52:04;2.55;;;1.10;;
33268;SDS011;19640;50.944;5.260;2024-02-26T01:54:34;1.55;;;1.20;;
33268;SDS011;19640;50.944;5.260;2024-02-26T01:57:01;1.92;;;1.08;;
33268;SDS011;19640;50.944;5.260;2024-02-26T01:59:28;1.50;;;1.10;;
33268;SDS011;19640;50.944;5.260;2024-02-26T02:01:55;1.17;;;1.00;;
33268;SDS011;19640;50.944;5.260;2024-02-26T02:04:23;1.58;;;0.73;;
33268;SDS011;19640;50.944;5.260;2024-02-26T02:06:50;3.50;;;0.90;;
33268;SDS011;19640;50.944;5.260;2024-02-26T02:09:17;1.30;;;0.88;;
33268;SDS011;19640;50.944;5.260;2024-02-26T02:11:43;1.90;;;0.70;;
33268;SDS011;19640;50.944;5.260;2024-02-26T02:14:09;1.90;;;1.10;;
33268;SDS011;19640;50.944;5.260;2024-02-26T02:16:35;1.90;;;0.88;;
33268;SDS011;19640;50.944;5.260;2024-02-26T02:19:01;1.92;;;0.93;;
33268;SDS011;19640;50.944;5.260;2024-02-26T02:21:26;1.83;;;1.05;;
33268;SDS011;19640;50.944;5.260;2024-02-26T02:23:52;1.08;;;0.90;;
33268;SDS011;19640;50.944;5.260;2024-02-26T02:26:18;1.98;;;1.02;;
33268;SDS011;19640;50.944;5.260;2024-02-26T02:28:44;2.05;;;1.00;;
33268;SDS011;19640;50.944;5.260;2024-02-26T02:31:11;0.68;;;0.68;;
33268;SDS011;19640;50.944;5.260;2024-02-26T02:33:37;2.83;;;1.05;;
33268;SDS011;19640;50.944;5.260;2024-02-26T02:36:03;2.00;;;1.33;;
33268;SDS011;19640;50.944;5.260;2024-02-26T02:38:29;2.03;;;0.82;;
33268;SDS011;19640;50.944;5.260;2024-02-26T02:40:56;1.15;;;1.00;;
33268;SDS011;19640;50.944;5.260;2024-02-26T02:43:22;1.20;;;0.90;;
33268;SDS011;19640;50.944;5.260;2024-02-26T02:45:48;2.35;;;1.05;;
33268;SDS011;19640;50.944;5.260;2024-02-26T02:48:13;1.15;;;0.80;;
33268;SDS011;19640;50.944;5.260;2024-02-26T02:50:39;1.75;;;0.98;;
33268;SDS011;19640;50.944;5.260;2024-02-26T02:53:05;1.60;;;1.20;;
33268;SDS011;19640;50.944;5.260;2024-02-26T02:55:30;3.75;;;1.00;;
33268;SDS011;19640;50.944;5.260;2024-02-26T02:57:56;1.73;;;1.00;;
33268;SDS011;19640;50.944;5.260;2024-02-26T03:00:22;2.00;;;0.90;;
33268;SDS011;19640;50.944;5.260;2024-02-26T03:02:50;1.30;;;1.20;;
33268;SDS011;19640;50.944;5.260;2024-02-26T03:05:16;2.85;;;1.40;;
33268;SDS011;19640;50.944;5.260;2024-02-26T03:07:42;2.80;;;1.27;;
33268;SDS011;19640;50.944;5.260;2024-02-26T03:10:07;1.30;;;1.20;;
33268;SDS011;19640;50.944;5.260;2024-02-26T03:12:33;1.38;;;1.00;;
33268;SDS011;19640;50.944;5.260;2024-02-26T03:14:59;2.22;;;1.50;;
33268;SDS011;19640;50.944;5.260;2024-02-26T03:17:28;1.58;;;1.25;;
33268;SDS011;19640;50.944;5.260;2024-02-26T03:19:54;1.42;;;1.23;;
33268;SDS011;19640;50.944;5.260;2024-02-26T03:22:20;1.05;;;0.85;;
33268;SDS011;19640;50.944;5.260;2024-02-26T03:24:46;2.85;;;1.30;;
33268;SDS011;19640;50.944;5.260;2024-02-26T03:27:12;1.77;;;1.08;;
33268;SDS011;19640;50.944;5.260;2024-02-26T03:29:38;2.75;;;1.27;;
33268;SDS011;19640;50.944;5.260;2024-02-26T03:32:04;1.20;;;1.00;;
33268;SDS011;19640;50.944;5.260;2024-02-26T03:34:31;1.58;;;1.20;;
33268;SDS011;19640;50.944;5.260;2024-02-26T03:36:59;1.10;;;1.00;;
33268;SDS011;19640;50.944;5.260;2024-02-26T03:39:25;2.03;;;1.52;;
33268;SDS011;19640;50.944;5.260;2024-02-26T03:41:51;1.70;;;1.20;;
33268;SDS011;19640;50.944;5.260;2024-02-26T03:44:17;2.28;;;1.20;;
33268;SDS011;19640;50.944;5.260;2024-02-26T03:46:42;1.40;;;1.13;;
33268;SDS011;19640;50.944;5.260;2024-02-26T03:49:08;4.28;;;1.50;;
33268;SDS011;19640;50.944;5.260;2024-02-26T03:51:34;1.33;;;1.23;;
33268;SDS011;19640;50.944;5.260;2024-02-26T03:54:00;1.80;;;1.50;;
33268;SDS011;19640;50.944;5.260;2024-02-26T03:56:26;3.58;;;1.65;;
33268;SDS011;19640;50.944;5.260;2024-02-26T03:58:52;1.83;;;1.40;;
33268;SDS011;19640;50.944;5.260;2024-02-26T04:01:18;2.03;;;1.63;;
33268;SDS011;19640;50.944;5.260;2024-02-26T04:03:44;2.63;;;1.48;;
33268;SDS011;19640;50.944;5.260;2024-02-26T04:06:10;2.47;;;1.88;;
33268;SDS011;19640;50.944;5.260;2024-02-26T04:08:36;2.50;;;1.80;;
33268;SDS011;19640;50.944;5.260;2024-02-26T04:11:03;3.95;;;1.50;;
33268;SDS011;19640;50.944;5.260;2024-02-26T04:13:32;2.38;;;1.40;;
33268;SDS011;19640;50.944;5.260;2024-02-26T04:15:59;1.98;;;1.50;;
33268;SDS011;19640;50.944;5.260;2024-02-26T04:18:26;2.30;;;1.60;;
33268;SDS011;19640;50.944;5.260;2024-02-26T04:20:52;2.80;;;1.65;;
33268;SDS011;19640;50.944;5.260;2024-02-26T04:23:18;1.92;;;1.42;;
33268;SDS011;19640;50.944;5.260;2024-02-26T04:25:44;2.88;;;2.15;;
33268;SDS011;19640;50.944;5.260;2024-02-26T04:28:10;2.38;;;2.17;;
33268;SDS011;19640;50.944;5.260;2024-02-26T04:30:36;7.88;;;2.40;;
33268;SDS011;19640;50.944;5.260;2024-02-26T04:33:02;2.67;;;2.47;;
33268;SDS011;19640;50.944;5.260;2024-02-26T04:35:28;3.03;;;2.67;;
33268;SDS011;19640;50.944;5.260;2024-02-26T04:37:53;3.15;;;2.78;;
33268;SDS011;19640;50.944;5.260;2024-02-26T04:40:19;3.33;;;2.97;;
33268;SDS011;19640;50.944;5.260;2024-02-26T04:42:45;3.97;;;3.05;;
33268;SDS011;19640;50.944;5.260;2024-02-26T04:45:10;4.10;;;3.20;;
33268;SDS011;19640;50.944;5.260;2024-02-26T04:47:36;3.90;;;3.50;;
33268;SDS011;19640;50.944;5.260;2024-02-26T04:50:01;3.58;;;3.03;;
33268;SDS011;19640;50.944;5.260;2024-02-26T04:52:27;5.75;;;3.13;;
33268;SDS011;19640;50.944;5.260;2024-02-26T04:54:53;4.50;;;3.13;;
33268;SDS011;19640;50.944;5.260;2024-02-26T04:57:20;4.75;;;3.17;;
33268;SDS011;19640;50.944;5.260;2024-02-26T04:59:46;4.15;;;2.58;;
33268;SDS011;19640;50.944;5.260;2024-02-26T05:02:12;2.75;;;2.47;;
33268;SDS011;19640;50.944;5.260;2024-02-26T05:04:38;4.03;;;3.03;;
33268;SDS011;19640;50.944;5.260;2024-02-26T05:07:04;4.68;;;3.10;;
33268;SDS011;19640;50.944;5.260;2024-02-26T05:09:30;2.83;;;2.50;;
33268;SDS011;19640;50.944;5.260;2024-02-26T05:11:56;6.93;;;3.33;;
33268;SDS011;19640;50.944;5.260;2024-02-26T05:14:22;3.38;;;2.50;;
33268;SDS011;19640;50.944;5.260;2024-02-26T05:16:48;5.30;;;2.95;;
33268;SDS011;19640;50.944;5.260;2024-02-26T05:19:13;3.80;;;2.85;;
33268;SDS011;19640;50.944;5.260;2024-02-26T05:21:39;4.00;;;3.13;;
33268;SDS011;19640;50.944;5.260;2024-02-26T05:24:05;3.92;;;2.75;;
33268;SDS011;19640;50.944;5.260;2024-02-26T05:26:31;3.65;;;3.03;;
33268;SDS011;19640;50.944;5.260;2024-02-26T05:28:57;5.03;;;3.55;;
33268;SDS011;19640;50.944;5.260;2024-02-26T05:31:25;4.78;;;3.72;;
33268;SDS011;19640;50.944;5.260;2024-02-26T05:33:51;3.58;;;2.83;;
33268;SDS011;19640;50.944;5.260;2024-02-26T05:36:20;3.55;;;3.22;;
33268;SDS011;19640;50.944;5.260;2024-02-26T05:38:47;5.03;;;3.50;;
33268;SDS011;19640;50.944;5.260;2024-02-26T05:41:16;6.15;;;3.88;;
33268;SDS011;19640;50.944;5.260;2024-02-26T05:43:47;4.97;;;3.78;;
33268;SDS011;19640;50.944;5.260;2024-02-26T05:46:17;4.75;;;4.07;;
33268;SDS011;19640;50.944;5.260;2024-02-26T05:48:43;5.32;;;4.10;;
33268;SDS011;19640;50.944;5.260;2024-02-26T05:51:09;3.65;;;2.67;;
33268;SDS011;19640;50.944;5.260;2024-02-26T05:53:35;4.18;;;3.75;;
33268;SDS011;19640;50.944;5.260;2024-02-26T05:56:00;3.58;;;2.72;;
33268;SDS011;19640;50.944;5.260;2024-02-26T05:58:26;5.53;;;4.63;;
33268;SDS011;19640;50.944;5.260;2024-02-26T06:00:52;6.00;;;4.82;;
33268;SDS011;19640;50.944;5.260;2024-02-26T06:03:17;5.68;;;4.35;;
33268;SDS011;19640;50.944;5.260;2024-02-26T06:05:43;5.38;;;4.05;;
33268;SDS011;19640;50.944;5.260;2024-02-26T06:08:09;6.05;;;5.43;;
33268;SDS011;19640;50.944;5.260;2024-02-26T06:10:34;6.95;;;5.07;;
33268;SDS011;19640;50.944;5.260;2024-02-26T06:13:00;7.22;;;5.60;;
33268;SDS011;19640;50.944;5.260;2024-02-26T06:15:26;6.18;;;5.32;;
33268;SDS011;19640;50.944;5.260;2024-02-26T06:17:51;5.25;;;4.60;;
33268;SDS011;19640;50.944;5.260;2024-02-26T06:20:17;9.55;;;5.78;;
33268;SDS011;19640;50.944;5.260;2024-02-26T06:22:43;5.75;;;4.55;;
33268;SDS011;19640;50.944;5.260;2024-02-26T06:25:10;5.10;;;4.57;;
33268;SDS011;19640;50.944;5.260;2024-02-26T06:27:35;6.90;;;5.93;;
33268;SDS011;19640;50.944;5.260;2024-02-26T06:30:01;6.38;;;5.78;;
33268;SDS011;19640;50.944;5.260;2024-02-26T06:32:27;7.25;;;6.50;;
33268;SDS011;19640;50.944;5.260;2024-02-26T06:34:54;8.00;;;5.30;;
33268;SDS011;19640;50.944;5.260;2024-02-26T06:37:20;10.73;;;5.55;;
33268;SDS011;19640;50.944;5.260;2024-02-26T06:39:45;7.10;;;5.88;;
33268;SDS011;19640;50.944;5.260;2024-02-26T06:42:11;9.48;;;6.30;;
33268;SDS011;19640;50.944;5.260;2024-02-26T06:44:37;6.45;;;5.80;;
33268;SDS011;19640;50.944;5.260;2024-02-26T06:47:03;6.07;;;5.47;;
33268;SDS011;19640;50.944;5.260;2024-02-26T06:49:29;5.55;;;4.78;;
33268;SDS011;19640;50.944;5.260;2024-02-26T06:51:55;8.88;;;4.22;;
33268;SDS011;19640;50.944;5.260;2024-02-26T06:54:20;6.53;;;4.90;;
33268;SDS011;19640;50.944;5.260;2024-02-26T06:56:46;6.05;;;5.28;;
33268;SDS011;19640;50.944;5.260;2024-02-26T06:59:12;7.28;;;4.97;;
33268;SDS011;19640;50.944;5.260;2024-02-26T07:01:40;5.60;;;5.00;;
33268;SDS011;19640;50.944;5.260;2024-02-26T07:04:06;5.82;;;4.88;;
33268;SDS011;19640;50.944;5.260;2024-02-26T07:06:32;4.88;;;4.00;;
33268;SDS011;19640;50.944;5.260;2024-02-26T07:08:58;5.60;;;4.95;;
33268;SDS011;19640;50.944;5.260;2024-02-26T07:11:23;7.43;;;4.90;;
33268;SDS011;19640;50.944;5.260;2024-02-26T07:13:49;6.15;;;4.70;;
33268;SDS011;19640;50.944;5.260;2024-02-26T07:16:15;5.22;;;4.55;;
33268;SDS011;19640;50.944;5.260;2024-02-26T07:18:41;4.80;;;4.30;;
33268;SDS011;19640;50.944;5.260;2024-02-26T07:21:08;4.32;;;3.92;;
33268;SDS011;19640;50.944;5.260;2024-02-26T07:23:34;7.57;;;4.95;;
33268;SDS011;19640;50.944;5.260;2024-02-26T07:26:00;5.90;;;4.40;;
33268;SDS011;19640;50.944;5.260;2024-02-26T07:28:26;6.53;;;5.43;;
33268;SDS011;19640;50.944;5.260;2024-02-26T07:30:51;4.97;;;4.50;;
33268;SDS011;19640;50.944;5.260;2024-02-26T07:33:17;5.80;;;4.43;;
33268;SDS011;19640;50.944;5.260;2024-02-26T07:35:43;5.68;;;4.95;;
33268;SDS011;19640;50.944;5.260;2024-02-26T07:38:09;7.63;;;5.40;;
33268;SDS011;19640;50.944;5.260;2024-02-26T07:40:34;6.47;;;5.85;;
33268;SDS011;19640;50.944;5.260;2024-02-26T07:43:01;5.88;;;5.32;;
33268;SDS011;19640;50.944;5.260;2024-02-26T07:45:27;8.15;;;6.07;;
33268;SDS011;19640;50.944;5.260;2024-02-26T07:47:52;6.20;;;5.60;;
33268;SDS011;19640;50.944;5.260;2024-02-26T07:50:18;6.65;;;4.43;;
33268;SDS011;19640;50.944;5.260;2024-02-26T07:52:44;7.90;;;4.70;;
33268;SDS011;19640;50.944;5.260;2024-02-26T07:55:10;6.75;;;6.03;;
33268;SDS011;19640;50.944;5.260;2024-02-26T07:57:36;8.93;;;7.78;;
33268;SDS011;19640;50.944;5.260;2024-02-26T08:00:05;6.50;;;5.90;;
33268;SDS011;19640;50.944;5.260;2024-02-26T08:02:34;7.75;;;6.05;;
33268;SDS011;19640;50.944;5.260;2024-02-26T08:05:01;10.93;;;7.78;;
33268;SDS011;19640;50.944;5.260;2024-02-26T08:07:26;8.95;;;8.02;;
33268;SDS011;19640;50.944;5.260;2024-02-26T08:09:52;9.98;;;7.80;;
33268;SDS011;19640;50.944;5.260;2024-02-26T08:12:18;8.88;;;7.75;;
33268;SDS011;19640;50.944;5.260;2024-02-26T08:14:43;7.28;;;6.68;;
33268;SDS011;19640;50.944;5.260;2024-02-26T08:17:09;9.00;;;8.15;;
33268;SDS011;19640;50.944;5.260;2024-02-26T08:19:35;9.43;;;6.85;;
33268;SDS011;19640;50.944;5.260;2024-02-26T08:22:01;9.95;;;9.05;;
33268;SDS011;19640;50.944;5.260;2024-02-26T08:24:27;7.78;;;7.07;;
33268;SDS011;19640;50.944;5.260;2024-02-26T08:26:53;8.68;;;6.13;;
33268;SDS011;19640;50.944;5.260;2024-02-26T08:29:19;9.25;;;8.07;;
33268;SDS011;19640;50.944;5.260;2024-02-26T08:31:44;10.20;;;9.27;;
33268;SDS011;19640;50.944;5.260;2024-02-26T08:34:10;10.18;;;8.98;;
33268;SDS011;19640;50.944;5.260;2024-02-26T08:36:36;10.45;;;9.40;;
33268;SDS011;19640;50.944;5.260;2024-02-26T08:39:02;10.02;;;9.10;;
33268;SDS011;19640;50.944;5.260;2024-02-26T08:41:28;9.73;;;8.73;;
33268;SDS011;19640;50.944;5.260;2024-02-26T08:43:54;15.40;;;8.85;;
33268;SDS011;19640;50.944;5.260;2024-02-26T08:46:19;10.43;;;9.32;;
33268;SDS011;19640;50.944;5.260;2024-02-26T08:48:45;10.13;;;9.13;;
33268;SDS011;19640;50.944;5.260;2024-02-26T08:51:11;10.15;;;8.40;;
33268;SDS011;19640;50.944;5.260;2024-02-26T08:53:38;15.98;;;10.10;;
33268;SDS011;19640;50.944;5.260;2024-02-26T08:56:04;8.68;;;7.82;;
33268;SDS011;19640;50.944;5.260;2024-02-26T08:58:30;9.45;;;8.52;;
33268;SDS011;19640;50.944;5.260;2024-02-26T09:00:56;10.30;;;8.65;;
33268;SDS011;19640;50.944;5.260;2024-02-26T09:03:22;9.88;;;8.88;;
33268;SDS011;19640;50.944;5.260;2024-02-26T09:05:47;10.57;;;9.45;;
33268;SDS011;19640;50.944;5.260;2024-02-26T09:08:13;9.52;;;8.63;;
33268;SDS011;19640;50.944;5.260;2024-02-26T09:10:39;9.43;;;8.57;;
33268;SDS011;19640;50.944;5.260;2024-02-26T09:13:05;7.07;;;4.60;;
33268;SDS011;19640;50.944;5.260;2024-02-26T09:15:31;7.95;;;5.68;;
33268;SDS011;19640;50.944;5.260;2024-02-26T09:17:57;5.80;;;5.28;;
33268;SDS011;19640;50.944;5.260;2024-02-26T09:20:22;9.20;;;8.02;;
33268;SDS011;19640;50.944;5.260;2024-02-26T09:22:49;6.03;;;5.43;;
33268;SDS011;19640;50.944;5.260;2024-02-26T09:25:15;8.15;;;7.35;;
33268;SDS011;19640;50.944;5.260;2024-02-26T09:27:42;8.07;;;7.28;;
33268;SDS011;19640;50.944;5.260;2024-02-26T09:30:09;5.80;;;5.30;;
33268;SDS011;19640;50.944;5.260;2024-02-26T09:32:35;7.57;;;6.88;;
33268;SDS011;19640;50.944;5.260;2024-02-26T09:35:01;6.30;;;5.70;;
33268;SDS011;19640;50.944;5.260;2024-02-26T09:37:27;6.97;;;5.53;;
33268;SDS011;19640;50.944;5.260;2024-02-26T09:39:52;7.93;;;6.45;;
33268;SDS011;19640;50.944;5.260;2024-02-26T09:42:18;6.60;;;6.00;;
33268;SDS011;19640;50.944;5.260;2024-02-26T09:44:44;6.35;;;5.75;;
33268;SDS011;19640;50.944;5.260;2024-02-26T09:47:11;7.32;;;5.00;;
33268;SDS011;19640;50.944;5.260;2024-02-26T09:49:42;6.60;;;6.00;;
33268;SDS011;19640;50.944;5.260;2024-02-26T09:52:08;6.43;;;5.82;;
33268;SDS011;19640;50.944;5.260;2024-02-26T09:54:34;4.75;;;4.22;;
33268;SDS011;19640;50.944;5.260;2024-02-26T09:57:02;6.70;;;6.10;;
33268;SDS011;19640;50.944;5.260;2024-02-26T09:59:29;6.25;;;5.65;;
33268;SDS011;19640;50.944;5.260;2024-02-26T10:02:04;8.98;;;8.07;;
33268;SDS011;19640;50.944;5.260;2024-02-26T10:04:29;9.80;;;8.80;;
33268;SDS011;19640;50.944;5.260;2024-02-26T10:06:56;10.25;;;9.25;;
33268;SDS011;19640;50.944;5.260;2024-02-26T10:09:25;10.23;;;9.23;;
33268;SDS011;19640;50.944;5.260;2024-02-26T10:11:50;10.95;;;9.95;;
33268;SDS011;19640;50.944;5.260;2024-02-26T10:14:16;8.80;;;6.72;;
33268;SDS011;19640;50.944;5.260;2024-02-26T10:16:42;11.60;;;10.57;;
33268;SDS011;19640;50.944;5.260;2024-02-26T10:19:08;12.38;;;10.90;;
33268;SDS011;19640;50.944;5.260;2024-02-26T10:21:35;7.88;;;7.10;;
33268;SDS011;19640;50.944;5.260;2024-02-26T10:24:01;9.60;;;8.70;;
33268;SDS011;19640;50.944;5.260;2024-02-26T10:26:27;10.63;;;9.18;;
33268;SDS011;19640;50.944;5.260;2024-02-26T10:28:53;10.13;;;9.10;;
33268;SDS011;19640;50.944;5.260;2024-02-26T10:31:24;9.52;;;8.65;;
33268;SDS011;19640;50.944;5.260;2024-02-26T10:33:50;10.57;;;9.50;;
33268;SDS011;19640;50.944;5.260;2024-02-26T10:36:21;5.72;;;5.25;;
33268;SDS011;19640;50.944;5.260;2024-02-26T10:38:46;9.93;;;8.90;;
33268;SDS011;19640;50.944;5.260;2024-02-26T10:41:13;10.65;;;9.65;;
33268;SDS011;19640;50.944;5.260;2024-02-26T10:43:41;9.90;;;9.05;;
33268;SDS011;19640;50.944;5.260;2024-02-26T10:46:07;11.18;;;10.02;;
33268;SDS011;19640;50.944;5.260;2024-02-26T10:48:33;12.10;;;10.95;;
33268;SDS011;19640;50.944;5.260;2024-02-26T10:50:59;10.40;;;9.48;;
33268;SDS011;19640;50.944;5.260;2024-02-26T10:53:25;10.10;;;9.13;;
33268;SDS011;19640;50.944;5.260;2024-02-26T10:55:55;11.27;;;9.30;;
33268;SDS011;19640;50.944;5.260;2024-02-26T10:58:25;11.35;;;10.23;;
33268;SDS011;19640;50.944;5.260;2024-02-26T11:00:52;10.77;;;9.73;;
33268;SDS011;19640;50.944;5.260;2024-02-26T11:03:18;11.23;;;10.23;;
33268;SDS011;19640;50.944;5.260;2024-02-26T11:05:48;12.60;;;10.65;;
33268;SDS011;19640;50.944;5.260;2024-02-26T11:08:15;12.88;;;11.63;;
33268;SDS011;19640;50.944;5.260;2024-02-26T11:10:43;10.80;;;9.80;;
33268;SDS011;19640;50.944;5.260;2024-02-26T11:13:12;11.55;;;10.40;;
33268;SDS011;19640;50.944;5.260;2024-02-26T11:15:40;9.65;;;8.82;;
33268;SDS011;19640;50.944;5.260;2024-02-26T11:18:07;12.18;;;10.88;;
33268;SDS011;19640;50.944;5.260;2024-02-26T11:20:34;11.07;;;9.63;;
33268;SDS011;19640;50.944;5.260;2024-02-26T11:23:03;10.95;;;9.90;;
33268;SDS011;19640;50.944;5.260;2024-02-26T11:25:29;11.05;;;10.13;;
33268;SDS011;19640;50.944;5.260;2024-02-26T11:27:55;10.57;;;9.57;;
33268;SDS011;19640;50.944;5.260;2024-02-26T11:30:26;11.00;;;10.00;;
33268;SDS011;19640;50.944;5.260;2024-02-26T11:32:57;12.43;;;10.18;;
33268;SDS011;19640;50.944;5.260;2024-02-26T11:35:23;11.27;;;10.18;;
33268;SDS011;19640;50.944;5.260;2024-02-26T11:37:55;5.80;;;5.20;;
33268;SDS011;19640;50.944;5.260;2024-02-26T11:40:26;10.65;;;9.68;;
33268;SDS011;19640;50.944;5.260;2024-02-26T11:42:52;8.88;;;7.97;;
33268;SDS011;19640;50.944;5.260;2024-02-26T11:48:03;9.65;;;8.75;;
33268;SDS011;19640;50.944;5.260;2024-02-26T11:50:35;10.43;;;9.52;;
33268;SDS011;19640;50.944;5.260;2024-02-26T11:55:48;8.85;;;7.72;;
33268;SDS011;19640;50.944;5.260;2024-02-26T11:58:33;8.70;;;7.82;;
33268;SDS011;19640;50.944;5.260;2024-02-26T12:00:59;8.63;;;7.82;;
33268;SDS011;19640;50.944;5.260;2024-02-26T12:03:24;8.55;;;7.68;;
33268;SDS011;19640;50.944;5.260;2024-02-26T12:05:51;8.88;;;8.18;;
33268;SDS011;19640;50.944;5.260;2024-02-26T12:08:17;10.70;;;9.55;;
33268;SDS011;19640;50.944;5.260;2024-02-26T12:10:45;9.27;;;8.43;;
33268;SDS011;19640;50.944;5.260;2024-02-26T12:13:12;10.50;;;9.50;;
33268;SDS011;19640;50.944;5.260;2024-02-26T12:15:43;8.88;;;8.10;;
33268;SDS011;19640;50.944;5.260;2024-02-26T12:18:11;10.02;;;9.23;;
33268;SDS011;19640;50.944;5.260;2024-02-26T12:20:42;9.60;;;8.35;;
33268;SDS011;19640;50.944;5.260;2024-02-26T12:23:09;9.70;;;7.97;;
33268;SDS011;19640;50.944;5.260;2024-02-26T12:25:40;6.93;;;6.22;;
33268;SDS011;19640;50.944;5.260;2024-02-26T12:28:06;8.63;;;7.82;;
33268;SDS011;19640;50.944;5.260;2024-02-26T12:30:32;11.68;;;7.75;;
33268;SDS011;19640;50.944;5.260;2024-02-26T12:32:58;9.65;;;8.75;;
33268;SDS011;19640;50.944;5.260;2024-02-26T12:35:26;8.25;;;7.45;;
33268;SDS011;19640;50.944;5.260;2024-02-26T12:37:55;7.13;;;6.13;;
33268;SDS011;19640;50.944;5.260;2024-02-26T12:40:21;8.45;;;7.75;;
33268;SDS011;19640;50.944;5.260;2024-02-26T12:42:47;6.28;;;5.68;;
33268;SDS011;19640;50.944;5.260;2024-02-26T12:45:13;4.10;;;3.75;;
33268;SDS011;19640;50.944;5.260;2024-02-26T12:47:44;8.73;;;7.88;;
33268;SDS011;19640;50.944;5.260;2024-02-26T12:50:16;3.63;;;3.33;;
33268;SDS011;19640;50.944;5.260;2024-02-26T12:52:46;7.88;;;7.07;;
33268;SDS011;19640;50.944;5.260;2024-02-26T12:55:19;5.53;;;4.60;;
33268;SDS011;19640;50.944;5.260;2024-02-26T12:57:46;5.63;;;4.88;;
33268;SDS011;19640;50.944;5.260;2024-02-26T13:00:15;7.60;;;6.80;;
33268;SDS011;19640;50.944;5.260;2024-02-26T13:02:43;7.32;;;6.72;;
33268;SDS011;19640;50.944;5.260;2024-02-26T13:05:10;6.63;;;6.03;;
33268;SDS011;19640;50.944;5.260;2024-02-26T13:07:44;7.22;;;6.63;;
33268;SDS011;19640;50.944;5.260;2024-02-26T13:10:12;6.10;;;5.60;;
33268;SDS011;19640;50.944;5.260;2024-02-26T13:12:45;6.78;;;6.18;;
33268;SDS011;19640;50.944;5.260;2024-02-26T13:15:18;6.13;;;5.53;;
33268;SDS011;19640;50.944;5.260;2024-02-26T13:17:45;7.50;;;6.85;;
33268;SDS011;19640;50.944;5.260;2024-02-26T13:20:11;8.02;;;7.22;;
33268;SDS011;19640;50.944;5.260;2024-02-26T13:22:38;7.10;;;6.50;;
33268;SDS011;19640;50.944;5.260;2024-02-26T13:25:04;7.00;;;6.40;;
33268;SDS011;19640;50.944;5.260;2024-02-26T13:27:32;9.20;;;6.82;;
33268;SDS011;19640;50.944;5.260;2024-02-26T13:30:05;6.90;;;5.78;;
33268;SDS011;19640;50.944;5.260;2024-02-26T13:32:35;8.10;;;7.30;;
33268;SDS011;19640;50.944;5.260;2024-02-26T13:35:08;8.02;;;7.28;;
33268;SDS011;19640;50.944;5.260;2024-02-26T13:37:36;8.82;;;8.02;;
33268;SDS011;19640;50.944;5.260;2024-02-26T13:40:09;9.38;;;8.43;;
33268;SDS011;19640;50.944;5.260;2024-02-26T13:42:36;10.38;;;8.05;;
33268;SDS011;19640;50.944;5.260;2024-02-26T13:45:03;7.93;;;7.13;;
33268;SDS011;19640;50.944;5.260;2024-02-26T13:47:32;10.10;;;8.50;;
33268;SDS011;19640;50.944;5.260;2024-02-26T13:50:01;9.35;;;8.43;;
33268;SDS011;19640;50.944;5.260;2024-02-26T13:52:28;14.02;;;10.32;;
33268;SDS011;19640;50.944;5.260;2024-02-26T13:54:53;10.65;;;8.88;;
33268;SDS011;19640;50.944;5.260;2024-02-26T13:57:19;9.93;;;8.93;;
33268;SDS011;19640;50.944;5.260;2024-02-26T13:59:45;8.52;;;7.47;;
33268;SDS011;19640;50.944;5.260;2024-02-26T14:02:11;8.35;;;6.72;;
33268;SDS011;19640;50.944;5.260;2024-02-26T14:04:37;12.02;;;9.57;;
33268;SDS011;19640;50.944;5.260;2024-02-26T14:07:03;11.63;;;9.70;;
33268;SDS011;19640;50.944;5.260;2024-02-26T14:09:29;7.93;;;6.88;;
33268;SDS011;19640;50.944;5.260;2024-02-26T14:11:57;6.00;;;5.32;;
33268;SDS011;19640;50.944;5.260;2024-02-26T14:14:23;7.30;;;6.20;;
33268;SDS011;19640;50.944;5.260;2024-02-26T14:16:50;13.02;;;11.70;;
33268;SDS011;19640;50.944;5.260;2024-02-26T14:19:16;12.18;;;10.98;;
33268;SDS011;19640;50.944;5.260;2024-02-26T14:21:42;13.45;;;12.05;;
33268;SDS011;19640;50.944;5.260;2024-02-26T14:24:08;11.50;;;10.40;;
33268;SDS011;19640;50.944;5.260;2024-02-26T14:26:33;12.57;;;10.75;;
33268;SDS011;19640;50.944;5.260;2024-02-26T14:28:59;14.57;;;12.77;;
33268;SDS011;19640;50.944;5.260;2024-02-26T14:31:25;13.80;;;11.57;;
33268;SDS011;19640;50.944;5.260;2024-02-26T14:33:51;11.85;;;10.52;;
33268;SDS011;19640;50.944;5.260;2024-02-26T14:36:19;11.07;;;8.52;;
33268;SDS011;19640;50.944;5.260;2024-02-26T14:38:46;8.82;;;7.90;;
33268;SDS011;19640;50.944;5.260;2024-02-26T14:41:12;9.77;;;8.80;;
33268;SDS011;19640;50.944;5.260;2024-02-26T14:43:37;7.57;;;6.22;;
33268;SDS011;19640;50.944;5.260;2024-02-26T14:46:03;12.85;;;11.55;;
33268;SDS011;19640;50.944;5.260;2024-02-26T14:48:30;13.20;;;11.90;;